Time;durP1;ratioP1;P1;durP2;ratioP2;P2;SDS_P1;SDS_P2;PMS_P1;PMS_P2;Temp;Humidity;BMP_temperature;BMP_pressure;BME280_temperature;BME280_humidity;BME280_pressure;Samples;Min_cycle;Max_cycle;Signal;HPM_P1;HPM_P2
2023/10/24 00:00:14;;;;;;;157.48;94.80;;;28.10;99.90;;;;;;5031671;28;20030;-66
2023/10/24 00:02:40;;;;;;;169.25;100.07;;;28.10;99.90;;;;;;5033066;28;20033;-65
2023/10/24 00:05:08;;;;;;;188.20;111.05;;;28.20;99.90;;;;;;5045683;28;20025;-65
2023/10/24 00:07:35;;;;;;;182.52;105.88;;;28.30;99.90;;;;;;5046167;28;20139;-65
2023/10/24 00:10:02;;;;;;;182.32;112.03;;;28.40;99.90;;;;;;5044486;28;20041;-65
2023/10/24 00:12:30;;;;;;;195.40;116.30;;;28.30;99.90;;;;;;5045661;28;20021;-65
2023/10/24 00:14:57;;;;;;;191.38;114.60;;;28.40;99.90;;;;;;5046183;28;20026;-66
2023/10/24 00:17:24;;;;;;;164.07;102.45;;;28.40;99.90;;;;;;5042004;28;20059;-65
2023/10/24 00:19:51;;;;;;;162.15;96.82;;;28.40;99.90;;;;;;5044973;28;20478;-65
2023/10/24 00:22:18;;;;;;;148.40;87.45;;;28.50;99.90;;;;;;5046185;28;20095;-66
2023/10/24 00:24:45;;;;;;;146.15;88.18;;;28.50;99.90;;;;;;5044499;28;20467;-65
2023/10/24 00:27:12;;;;;;;283.75;187.43;;;28.60;99.90;;;;;;5044691;28;20021;-65
2023/10/24 00:29:38;;;;;;;190.55;112.18;;;28.60;99.90;;;;;;5046192;28;20478;-66
2023/10/24 00:32:05;;;;;;;139.45;79.80;;;28.70;99.90;;;;;;5044310;28;20033;-67
2023/10/24 00:34:32;;;;;;;140.75;82.88;;;28.70;99.90;;;;;;5044914;28;20021;-67
2023/10/24 00:36:59;;;;;;;123.75;70.00;;;28.80;99.90;;;;;;5043341;28;20018;-66
2023/10/24 00:39:25;;;;;;;132.30;78.53;;;28.90;99.90;;;;;;5035295;28;20026;-65
2023/10/24 00:41:52;;;;;;;115.45;71.57;;;29.00;99.90;;;;;;5035122;28;20037;-66
2023/10/24 00:44:19;;;;;;;101.25;61.75;;;29.00;99.90;;;;;;5034911;28;20069;-67
2023/10/24 00:46:46;;;;;;;112.07;65.15;;;29.00;99.90;;;;;;5035145;28;20465;-68
2023/10/24 00:49:13;;;;;;;99.28;59.95;;;29.10;99.90;;;;;;5037522;28;20025;-66
2023/10/24 00:51:41;;;;;;;66.85;44.80;;;29.20;99.90;;;;;;5045098;28;20027;-65
2023/10/24 00:54:09;;;;;;;81.82;52.17;;;29.20;99.90;;;;;;5043545;28;20017;-65
2023/10/24 00:56:37;;;;;;;97.72;59.75;;;29.20;99.90;;;;;;5043945;28;20117;-66
2023/10/24 00:59:04;;;;;;;91.32;53.60;;;29.30;99.90;;;;;;5046368;28;20100;-66
2023/10/24 01:01:31;;;;;;;82.05;54.20;;;29.40;99.90;;;;;;5055056;28;20021;-66
2023/10/24 01:04:01;;;;;;;72.45;50.55;;;29.50;99.90;;;;;;5054513;28;20070;-65
2023/10/24 01:06:27;;;;;;;103.15;69.93;;;29.50;99.90;;;;;;5054672;28;20017;-66
2023/10/24 01:08:54;;;;;;;172.45;122.32;;;29.60;99.90;;;;;;5054401;28;20434;-66
2023/10/24 01:11:23;;;;;;;78.13;52.95;;;29.70;99.90;;;;;;5054508;28;20155;-65
2023/10/24 01:13:50;;;;;;;76.43;53.00;;;29.70;99.90;;;;;;5054506;28;20033;-65
2023/10/24 01:16:17;;;;;;;75.18;49.17;;;29.70;99.90;;;;;;5054497;28;20456;-65
2023/10/24 01:18:44;;;;;;;83.43;53.13;;;29.70;99.90;;;;;;5048513;28;20214;-66
2023/10/24 01:21:10;;;;;;;83.75;54.47;;;29.70;99.90;;;;;;5014872;28;20022;-65
2023/10/24 01:23:37;;;;;;;82.38;55.03;;;29.80;99.90;;;;;;5014463;28;20034;-65
2023/10/24 01:26:08;;;;;;;90.88;54.38;;;29.80;99.90;;;;;;5028821;28;20482;-65
2023/10/24 01:28:34;;;;;;;79.95;52.20;;;29.80;99.90;;;;;;5034183;28;20017;-64
2023/10/24 01:31:01;;;;;;;90.05;58.20;;;29.90;99.90;;;;;;5041801;28;20018;-64
2023/10/24 01:33:29;;;;;;;89.28;56.20;;;30.00;99.90;;;;;;5034677;28;20040;-64
2023/10/24 01:35:56;;;;;;;85.57;57.65;;;30.00;99.90;;;;;;5036122;28;20034;-65
2023/10/24 01:38:23;;;;;;;82.25;53.15;;;30.00;99.90;;;;;;5039623;28;20374;-64
2023/10/24 01:40:49;;;;;;;84.00;57.00;;;30.00;99.90;;;;;;5033933;28;20445;-64
2023/10/24 01:43:16;;;;;;;82.32;54.85;;;30.10;99.90;;;;;;5033966;28;20029;-64
2023/10/24 01:45:43;;;;;;;87.05;57.08;;;30.10;99.90;;;;;;5033967;28;20425;-65
2023/10/24 01:48:10;;;;;;;101.72;67.68;;;30.10;99.90;;;;;;5028342;28;20135;-65
2023/10/24 01:50:36;;;;;;;121.82;80.63;;;30.20;99.90;;;;;;5030806;28;20025;-64
2023/10/24 01:53:03;;;;;;;118.72;80.35;;;30.30;99.90;;;;;;5014483;28;20382;-65
2023/10/24 01:55:30;;;;;;;107.93;70.60;;;30.30;99.90;;;;;;5014152;28;20022;-64
2023/10/24 01:57:57;;;;;;;107.95;73.00;;;30.40;99.90;;;;;;4996363;28;20441;-64
2023/10/24 02:00:23;;;;;;;92.80;61.70;;;30.40;99.90;;;;;;5014164;28;20108;-64
2023/10/24 02:02:52;;;;;;;86.38;60.83;;;30.50;99.90;;;;;;5013887;28;20021;-64
2023/10/24 02:05:19;;;;;;;88.32;59.88;;;30.60;99.90;;;;;;5014003;28;20026;-64
2023/10/24 02:07:46;;;;;;;99.63;56.30;;;30.60;99.90;;;;;;5013749;28;20076;-64
2023/10/24 02:10:12;;;;;;;87.50;61.35;;;30.70;99.90;;;;;;5013607;28;20050;-64
2023/10/24 02:12:39;;;;;;;86.65;58.63;;;30.70;99.90;;;;;;5013718;28;20018;-64
2023/10/24 02:15:06;;;;;;;82.53;59.53;;;30.70;99.90;;;;;;5013712;28;20025;-64
2023/10/24 02:17:33;;;;;;;78.63;56.22;;;30.80;99.90;;;;;;5013864;28;20032;-65
2023/10/24 02:20:00;;;;;;;88.57;61.15;;;30.90;99.90;;;;;;4995948;28;20414;-64
2023/10/24 02:22:27;;;;;;;81.55;59.13;;;30.90;99.90;;;;;;5013710;28;20053;-64
2023/10/24 02:24:53;;;;;;;103.68;68.13;;;31.00;99.90;;;;;;5013632;28;20029;-64
2023/10/24 02:27:20;;;;;;;88.38;62.33;;;31.10;99.90;;;;;;5013786;28;20104;-64
2023/10/24 02:29:47;;;;;;;88.78;60.70;;;31.20;99.90;;;;;;5013406;28;20026;-65
2023/10/24 02:32:14;;;;;;;99.00;63.25;;;31.20;99.90;;;;;;5013688;28;20383;-64
2023/10/24 02:34:40;;;;;;;94.97;64.68;;;31.30;99.90;;;;;;5013300;28;20372;-64
2023/10/24 02:37:07;;;;;;;85.80;63.30;;;31.30;99.90;;;;;;5013578;28;20021;-64
2023/10/24 02:39:34;;;;;;;82.35;59.05;;;31.30;99.90;;;;;;5013464;28;20076;-64
2023/10/24 02:42:00;;;;;;;87.25;59.97;;;31.20;99.90;;;;;;5013541;28;20026;-65
2023/10/24 02:44:28;;;;;;;91.05;61.38;;;31.40;99.90;;;;;;5013406;28;20080;-65
2023/10/24 02:46:55;;;;;;;86.72;60.17;;;31.40;99.90;;;;;;5013433;28;20029;-64
2023/10/24 02:49:21;;;;;;;83.82;58.97;;;31.30;99.90;;;;;;5013361;28;20072;-65
2023/10/24 02:51:48;;;;;;;82.18;58.28;;;31.40;99.90;;;;;;5016053;28;20022;-64
2023/10/24 02:54:15;;;;;;;88.35;60.38;;;31.40;99.90;;;;;;5017298;28;20030;-64
2023/10/24 02:56:41;;;;;;;81.57;59.05;;;31.60;99.90;;;;;;5017198;28;20045;-65
2023/10/24 02:59:08;;;;;;;78.88;57.35;;;31.60;99.90;;;;;;5017238;28;20030;-64
2023/10/24 03:01:35;;;;;;;75.90;56.75;;;31.70;99.90;;;;;;5017181;28;20041;-64
2023/10/24 03:04:02;;;;;;;77.07;54.58;;;31.70;99.90;;;;;;5016922;28;20481;-64
2023/10/24 03:06:29;;;;;;;73.80;52.45;;;31.80;99.90;;;;;;5017065;28;20029;-65
2023/10/24 03:08:56;;;;;;;72.28;51.08;;;31.90;99.90;;;;;;5017105;28;20092;-64
2023/10/24 03:11:24;;;;;;;84.20;58.30;;;32.00;99.90;;;;;;5017342;28;20026;-64
2023/10/24 03:13:53;;;;;;;88.80;61.95;;;32.00;99.90;;;;;;5017182;28;20026;-64
2023/10/24 03:16:20;;;;;;;84.78;61.13;;;32.00;99.90;;;;;;5016814;28;20429;-64
2023/10/24 03:18:47;;;;;;;81.78;60.78;;;32.10;99.90;;;;;;5016901;28;20418;-64
2023/10/24 03:21:14;;;;;;;84.88;60.67;;;32.20;99.90;;;;;;5016816;28;20049;-64
2023/10/24 03:23:41;;;;;;;97.95;65.65;;;32.20;99.90;;;;;;5016955;28;20030;-65
2023/10/24 03:26:08;;;;;;;92.22;65.85;;;32.20;99.90;;;;;;5016604;28;20038;-65
2023/10/24 03:28:34;;;;;;;91.28;63.33;;;32.30;99.90;;;;;;5016702;28;20441;-65
2023/10/24 03:31:04;;;;;;;96.38;67.75;;;32.40;99.90;;;;;;5016785;28;20362;-64
2023/10/24 03:33:32;;;;;;;107.88;71.63;;;32.40;99.90;;;;;;5016484;28;20026;-64
2023/10/24 03:35:59;;;;;;;112.97;78.20;;;32.50;99.90;;;;;;5016811;28;20076;-65
2023/10/24 03:38:27;;;;;;;114.18;75.57;;;32.60;99.90;;;;;;5016535;28;20364;-65
2023/10/24 03:40:54;;;;;;;111.38;80.40;;;32.60;99.90;;;;;;5015984;28;20109;-64
2023/10/24 03:43:21;;;;;;;123.32;85.15;;;32.60;99.90;;;;;;5016446;28;20531;-64
2023/10/24 03:45:49;;;;;;;128.85;87.75;;;32.60;99.90;;;;;;5018680;28;20037;-64
2023/10/24 03:48:15;;;;;;;178.98;123.95;;;32.60;99.90;;;;;;5018772;28;20023;-65
2023/10/24 03:50:42;;;;;;;175.25;116.55;;;32.70;99.90;;;;;;5022267;28;20021;-65
2023/10/24 03:53:09;;;;;;;144.18;97.50;;;32.80;99.90;;;;;;5040836;28;20052;-65
2023/10/24 03:55:36;;;;;;;122.93;85.40;;;32.80;99.90;;;;;;5050336;28;20039;-66
2023/10/24 03:58:03;;;;;;;118.10;75.47;;;32.70;99.90;;;;;;5044954;28;20663;-66
2023/10/24 04:00:30;;;;;;;137.15;90.05;;;32.70;99.90;;;;;;5046466;28;20017;-66
2023/10/24 04:02:57;;;;;;;140.30;96.95;;;32.70;99.90;;;;;;5049521;28;20029;-66
2023/10/24 04:05:24;;;;;;;139.50;97.40;;;32.80;99.90;;;;;;5046055;28;20087;-66
2023/10/24 04:07:51;;;;;;;137.40;92.97;;;32.80;99.90;;;;;;5044812;28;20025;-66
2023/10/24 04:10:17;;;;;;;131.98;91.93;;;32.90;99.90;;;;;;5044104;28;20048;-67
2023/10/24 04:12:44;;;;;;;126.53;87.93;;;32.90;99.90;;;;;;5040992;28;20083;-65
2023/10/24 04:15:11;;;;;;;132.15;86.90;;;32.90;99.90;;;;;;5044144;28;20021;-65
2023/10/24 04:17:37;;;;;;;125.05;84.95;;;33.00;99.90;;;;;;5036421;28;20422;-64
2023/10/24 04:20:06;;;;;;;124.38;87.57;;;33.00;99.90;;;;;;5035760;28;20025;-65
2023/10/24 04:22:33;;;;;;;126.93;86.35;;;32.90;99.90;;;;;;5044416;28;20501;-65
2023/10/24 04:24:59;;;;;;;122.85;84.22;;;33.00;99.90;;;;;;5046220;28;20036;-68
2023/10/24 04:27:26;;;;;;;110.47;76.55;;;33.00;99.90;;;;;;5043553;28;20021;-67
2023/10/24 04:29:53;;;;;;;113.18;77.85;;;33.00;99.90;;;;;;5044603;28;20036;-70
2023/10/24 04:32:20;;;;;;;115.43;76.28;;;33.10;99.90;;;;;;5048403;28;20025;-68
2023/10/24 04:34:51;;;;;;;117.05;76.57;;;33.10;99.90;;;;;;5052837;28;20029;-70
2023/10/24 04:37:18;;;;;;;109.90;73.00;;;33.10;99.90;;;;;;5052764;28;20031;-69
2023/10/24 04:39:45;;;;;;;99.22;68.00;;;33.00;99.90;;;;;;5052749;28;20040;-70
2023/10/24 04:42:12;;;;;;;94.72;63.55;;;33.00;99.90;;;;;;5050036;28;20112;-67
2023/10/24 04:44:39;;;;;;;84.38;57.33;;;33.10;99.90;;;;;;5052763;28;20179;-67
2023/10/24 04:47:05;;;;;;;94.43;65.68;;;33.30;99.90;;;;;;5052781;28;20013;-67
2023/10/24 04:49:32;;;;;;;97.57;69.38;;;33.30;99.90;;;;;;5052512;28;20017;-69
2023/10/24 04:51:59;;;;;;;89.97;63.67;;;33.30;99.90;;;;;;5044189;28;20013;-68
2023/10/24 04:54:26;;;;;;;97.10;65.93;;;33.20;99.90;;;;;;5049799;28;20029;-67
2023/10/24 04:56:52;;;;;;;93.53;62.53;;;33.20;99.90;;;;;;5054393;28;20037;-66
2023/10/24 04:59:19;;;;;;;89.70;63.38;;;33.30;99.90;;;;;;5054136;28;20103;-67
2023/10/24 05:01:46;;;;;;;88.88;61.42;;;33.40;99.90;;;;;;5037017;28;20376;-67
2023/10/24 05:04:12;;;;;;;84.18;60.72;;;33.60;99.90;;;;;;5054177;28;20057;-67
2023/10/24 05:06:39;;;;;;;87.78;62.20;;;33.70;99.90;;;;;;5054183;28;20020;-68
2023/10/24 05:09:06;;;;;;;88.70;61.85;;;33.70;99.90;;;;;;5053954;28;20033;-66
2023/10/24 05:11:33;;;;;;;86.47;60.38;;;33.60;99.90;;;;;;5041028;28;20032;-67
2023/10/24 05:14:00;;;;;;;83.10;60.25;;;33.50;99.90;;;;;;5042192;28;20026;-67
2023/10/24 05:16:26;;;;;;;85.35;58.42;;;33.50;99.90;;;;;;5042675;28;20013;-67
2023/10/24 05:18:53;;;;;;;87.18;60.33;;;33.60;99.90;;;;;;5043943;28;20481;-67
2023/10/24 05:21:20;;;;;;;100.63;70.85;;;33.60;99.90;;;;;;5042833;28;20033;-68
2023/10/24 05:23:46;;;;;;;91.15;69.00;;;33.70;99.90;;;;;;5042683;28;20025;-67
2023/10/24 05:26:13;;;;;;;125.93;93.70;;;33.80;99.90;;;;;;5043907;28;20032;-67
2023/10/24 05:28:40;;;;;;;99.45;71.88;;;33.80;99.90;;;;;;5042568;28;20025;-68
2023/10/24 05:31:07;;;;;;;90.97;62.92;;;33.90;99.90;;;;;;5041995;28;20025;-68
2023/10/24 05:33:35;;;;;;;113.78;78.53;;;33.90;99.90;;;;;;5038827;28;20128;-69
2023/10/24 05:36:03;;;;;;;115.03;80.28;;;33.80;99.70;;;;;;5042896;28;20458;-68
2023/10/24 05:38:29;;;;;;;121.10;86.07;;;33.80;99.90;;;;;;5043858;28;20106;-68
2023/10/24 05:40:56;;;;;;;117.18;82.43;;;33.80;99.90;;;;;;5041435;28;20075;-67
2023/10/24 05:43:23;;;;;;;109.10;75.85;;;33.90;99.90;;;;;;5042021;28;20437;-68
2023/10/24 05:45:50;;;;;;;99.82;70.72;;;34.00;99.90;;;;;;5042203;28;20033;-68
2023/10/24 05:48:16;;;;;;;197.15;143.32;;;34.00;99.90;;;;;;5039958;28;20115;-68
2023/10/24 05:50:45;;;;;;;116.60;82.72;;;34.10;99.90;;;;;;5038627;28;20060;-68
2023/10/24 05:53:12;;;;;;;160.35;119.32;;;34.00;99.90;;;;;;5042779;28;20021;-69
2023/10/24 05:55:41;;;;;;;99.47;72.05;;;34.00;99.90;;;;;;5043677;28;20113;-69
2023/10/24 05:58:08;;;;;;;105.45;70.28;;;34.00;98.90;;;;;;5044457;28;20514;-69
2023/10/24 06:00:34;;;;;;;96.72;68.97;;;34.10;99.60;;;;;;5039858;28;20459;-69
2023/10/24 06:03:01;;;;;;;92.13;65.57;;;34.00;99.70;;;;;;5043358;28;20013;-68
2023/10/24 06:05:28;;;;;;;96.72;69.53;;;34.00;99.90;;;;;;5034079;28;20025;-67
2023/10/24 06:07:54;;;;;;;87.97;66.82;;;34.00;98.80;;;;;;5038809;28;20043;-67
2023/10/24 06:10:21;;;;;;;90.65;64.63;;;33.90;98.60;;;;;;5053295;28;20120;-67
2023/10/24 06:12:48;;;;;;;87.35;64.95;;;33.90;99.20;;;;;;5053753;28;20013;-66
2023/10/24 06:15:15;;;;;;;84.90;61.83;;;33.90;99.20;;;;;;5054294;28;20071;-66
2023/10/24 06:17:42;;;;;;;123.57;92.93;;;33.90;98.80;;;;;;5053233;28;20028;-66
2023/10/24 06:20:09;;;;;;;103.22;73.38;;;33.90;99.20;;;;;;5053092;28;20100;-67
2023/10/24 06:22:36;;;;;;;98.05;71.78;;;34.00;99.20;;;;;;5047126;28;20083;-67
2023/10/24 06:25:02;;;;;;;93.25;63.25;;;34.00;99.00;;;;;;5019715;28;20382;-68
2023/10/24 06:27:29;;;;;;;81.78;61.78;;;34.20;97.80;;;;;;5040842;28;20013;-68
2023/10/24 06:29:56;;;;;;;82.70;61.53;;;34.30;98.10;;;;;;5052574;28;20540;-67
2023/10/24 06:32:23;;;;;;;80.43;60.83;;;34.40;98.30;;;;;;5041272;28;20454;-68
2023/10/24 06:34:49;;;;;;;87.45;62.13;;;34.50;98.20;;;;;;5040892;28;20025;-67
2023/10/24 06:37:16;;;;;;;85.50;63.85;;;34.60;96.80;;;;;;5042005;28;20021;-68
2023/10/24 06:39:43;;;;;;;91.88;66.10;;;34.70;97.30;;;;;;5043279;28;20092;-67
2023/10/24 06:42:10;;;;;;;91.97;65.70;;;34.70;97.40;;;;;;5043732;28;20039;-68
2023/10/24 06:44:36;;;;;;;88.38;65.88;;;34.70;97.30;;;;;;5041947;28;20108;-68
2023/10/24 06:47:03;;;;;;;97.90;68.95;;;34.70;96.90;;;;;;5042625;28;20040;-70
2023/10/24 06:49:30;;;;;;;96.40;68.78;;;34.70;96.40;;;;;;5035958;28;20017;-67
2023/10/24 06:51:56;;;;;;;89.00;63.55;;;34.60;95.90;;;;;;5039628;28;20018;-66
2023/10/24 06:54:23;;;;;;;97.32;68.85;;;34.50;96.60;;;;;;5042516;28;20017;-71
2023/10/24 06:56:50;;;;;;;97.07;67.85;;;34.60;97.00;;;;;;5043584;28;20029;-67
2023/10/24 06:59:16;;;;;;;106.57;75.05;;;34.60;97.00;;;;;;5041920;28;20531;-66
2023/10/24 07:01:43;;;;;;;132.80;98.78;;;34.60;96.60;;;;;;5042630;28;20029;-67
2023/10/24 07:04:10;;;;;;;100.57;73.75;;;34.60;96.70;;;;;;5043478;28;20029;-66
2023/10/24 07:06:36;;;;;;;126.63;92.38;;;34.70;95.50;;;;;;5041923;28;20040;-65
2023/10/24 07:09:03;;;;;;;100.60;73.32;;;34.80;95.60;;;;;;5042163;28;20041;-66
2023/10/24 07:11:30;;;;;;;106.25;78.07;;;34.80;95.60;;;;;;5043338;28;20036;-66
2023/10/24 07:13:57;;;;;;;105.13;77.00;;;34.90;96.10;;;;;;5041885;28;20060;-65
2023/10/24 07:16:23;;;;;;;112.82;82.97;;;34.90;95.50;;;;;;5042314;28;20063;-66
2023/10/24 07:18:50;;;;;;;113.25;80.35;;;35.00;96.20;;;;;;5043063;28;20025;-66
2023/10/24 07:21:17;;;;;;;110.60;81.97;;;35.00;95.00;;;;;;5041496;28;20386;-65
2023/10/24 07:23:43;;;;;;;105.68;77.90;;;35.00;95.40;;;;;;5041851;28;20036;-70
2023/10/24 07:26:10;;;;;;;117.65;80.75;;;35.00;95.40;;;;;;5040455;28;20033;-66
2023/10/24 07:28:37;;;;;;;106.05;81.55;;;35.10;94.10;;;;;;5041493;28;20026;-66
2023/10/24 07:31:04;;;;;;;111.65;81.95;;;35.10;94.30;;;;;;5040920;28;20024;-66
2023/10/24 07:33:31;;;;;;;143.32;100.57;;;35.10;94.10;;;;;;5041918;28;20025;-66
2023/10/24 07:36:08;;;;;;;124.95;89.30;;;35.00;93.10;;;;;;5038186;28;20029;-66
2023/10/24 07:38:35;;;;;;;124.07;90.32;;;35.00;93.50;;;;;;5036746;28;20471;-66
2023/10/24 07:41:03;;;;;;;130.10;96.57;;;35.10;92.80;;;;;;5036555;28;20026;-66
2023/10/24 07:43:29;;;;;;;125.20;90.90;;;35.10;93.00;;;;;;5036334;28;20029;-65
2023/10/24 07:45:56;;;;;;;142.23;98.72;;;35.20;93.50;;;;;;5037277;28;20111;-66
2023/10/24 07:48:24;;;;;;;146.30;99.57;;;35.20;93.60;;;;;;5044662;28;20052;-66
2023/10/24 07:50:52;;;;;;;148.70;108.50;;;35.20;93.80;;;;;;5046469;28;20025;-66
2023/10/24 07:53:20;;;;;;;131.38;92.97;;;35.20;92.90;;;;;;5046770;28;20075;-67
2023/10/24 07:55:47;;;;;;;147.27;101.00;;;35.10;93.30;;;;;;5042643;28;20386;-66
2023/10/24 07:58:16;;;;;;;134.82;94.63;;;35.20;93.80;;;;;;5045647;28;20021;-67
2023/10/24 08:00:45;;;;;;;135.07;96.45;;;35.20;94.00;;;;;;5046849;28;20374;-66
2023/10/24 08:03:14;;;;;;;146.00;101.97;;;35.20;93.60;;;;;;5045306;28;20021;-68
2023/10/24 08:05:41;;;;;;;147.30;102.70;;;35.30;93.70;;;;;;5044474;28;20017;-67
2023/10/24 08:08:08;;;;;;;141.80;97.32;;;35.30;92.50;;;;;;5035795;28;20026;-67
2023/10/24 08:10:35;;;;;;;144.93;103.85;;;35.30;91.80;;;;;;5036216;28;20129;-68
2023/10/24 08:13:02;;;;;;;157.40;107.03;;;35.30;91.70;;;;;;5036290;28;20017;-68
2023/10/24 08:15:29;;;;;;;148.80;100.63;;;35.40;92.00;;;;;;5035843;28;20017;-66
2023/10/24 08:17:56;;;;;;;138.35;97.88;;;35.50;92.30;;;;;;5036176;28;20032;-68
2023/10/24 08:20:23;;;;;;;127.15;90.38;;;35.60;92.60;;;;;;5042481;28;20536;-64
2023/10/24 08:22:51;;;;;;;140.15;101.47;;;35.60;92.90;;;;;;5044048;28;20100;-65
2023/10/24 08:25:18;;;;;;;143.70;98.45;;;35.60;92.10;;;;;;5041425;28;20029;-65
2023/10/24 08:27:45;;;;;;;199.75;144.40;;;35.50;92.10;;;;;;5044849;28;20017;-65
2023/10/24 08:30:12;;;;;;;145.32;100.90;;;35.40;92.50;;;;;;5045964;28;20111;-64
2023/10/24 08:32:39;;;;;;;155.23;108.38;;;35.40;92.80;;;;;;5040856;28;20513;-65
2023/10/24 08:35:06;;;;;;;144.88;100.97;;;35.40;93.00;;;;;;5045671;28;20048;-65
2023/10/24 08:37:34;;;;;;;133.52;92.78;;;35.50;93.30;;;;;;5023163;28;20025;-67
2023/10/24 08:40:01;;;;;;;133.43;94.20;;;35.50;92.60;;;;;;5044235;28;20040;-69
2023/10/24 08:42:29;;;;;;;144.02;96.93;;;35.50;92.30;;;;;;5045719;28;20382;-65
2023/10/24 08:44:57;;;;;;;138.80;97.18;;;35.50;92.20;;;;;;5043739;28;20029;-67
2023/10/24 08:47:24;;;;;;;154.63;109.63;;;35.50;92.50;;;;;;5046316;28;20013;-66
2023/10/24 08:49:51;;;;;;;161.98;108.72;;;35.50;92.50;;;;;;5036509;28;20028;-64
2023/10/24 08:52:18;;;;;;;168.40;119.38;;;35.50;92.90;;;;;;5034662;28;20075;-65
2023/10/24 08:54:45;;;;;;;149.25;101.63;;;35.50;93.00;;;;;;5034747;28;20399;-65
2023/10/24 08:57:13;;;;;;;161.48;105.93;;;35.50;92.10;;;;;;5034913;28;20033;-65
2023/10/24 08:59:42;;;;;;;161.52;106.20;;;35.40;91.60;;;;;;5034664;28;20026;-64
2023/10/24 09:02:11;;;;;;;154.10;104.53;;;35.20;92.30;;;;;;5034699;28;20029;-64
2023/10/24 09:04:40;;;;;;;148.65;102.90;;;35.20;92.40;;;;;;5034588;28;20032;-64
2023/10/24 09:07:07;;;;;;;149.90;97.85;;;35.20;93.30;;;;;;5034487;28;20017;-63
2023/10/24 09:09:34;;;;;;;145.43;101.93;;;35.30;93.60;;;;;;5034517;28;20517;-65
2023/10/24 09:12:03;;;;;;;145.25;99.25;;;35.30;92.60;;;;;;5042603;28;20025;-67
2023/10/24 09:14:30;;;;;;;144.45;97.60;;;35.20;93.20;;;;;;5037839;28;20036;-67
2023/10/24 09:17:00;;;;;;;139.38;97.47;;;35.20;93.90;;;;;;5045783;28;20410;-66
2023/10/24 09:19:28;;;;;;;142.38;96.60;;;35.20;93.80;;;;;;5033943;28;20029;-65
2023/10/24 09:21:56;;;;;;;112.55;73.68;;;35.20;93.90;;;;;;5034389;28;20437;-65
2023/10/24 09:24:23;;;;;;;94.63;59.60;;;35.20;94.80;;;;;;5043792;28;20018;-66
2023/10/24 09:26:52;;;;;;;99.20;67.80;;;35.00;95.80;;;;;;5040173;28;20134;-65
2023/10/24 09:29:20;;;;;;;126.47;81.38;;;34.90;97.00;;;;;;5043763;28;20462;-65
2023/10/24 09:31:48;;;;;;;80.50;52.40;;;34.80;97.30;;;;;;5047109;28;20029;-66
2023/10/24 09:34:17;;;;;;;49.65;35.50;;;34.80;97.40;;;;;;5039452;28;20060;-66
2023/10/24 09:36:48;;;;;;;45.55;32.13;;;34.60;97.10;;;;;;5034046;28;20072;-65
2023/10/24 09:39:15;;;;;;;43.03;27.77;;;34.40;97.40;;;;;;5042505;28;20029;-64
2023/10/24 09:41:44;;;;;;;53.13;30.92;;;34.30;97.10;;;;;;5043450;28;20037;-65
2023/10/24 09:44:11;;;;;;;44.40;31.40;;;34.20;97.70;;;;;;5043545;28;20017;-64
2023/10/24 09:46:38;;;;;;;50.70;35.60;;;34.10;97.70;;;;;;5040229;28;20111;-65
2023/10/24 09:49:21;;;;;;;57.33;37.60;;;34.20;97.80;;;;;;5031952;28;20592;-65
2023/10/24 09:51:48;;;;;;;47.72;35.60;;;34.10;97.60;;;;;;5041988;28;20382;-64
2023/10/24 09:54:15;;;;;;;64.45;39.30;;;34.00;97.40;;;;;;5043321;28;20029;-68
2023/10/24 09:56:43;;;;;;;55.55;36.88;;;33.80;97.00;;;;;;5036562;28;20056;-67
2023/10/24 09:59:11;;;;;;;47.42;32.22;;;33.50;97.80;;;;;;5036745;28;20036;-67
2023/10/24 10:01:38;;;;;;;86.07;49.85;;;33.40;98.60;;;;;;5037802;28;20037;-66
2023/10/24 10:04:07;;;;;;;58.85;35.20;;;33.30;99.10;;;;;;5042658;28;20025;-67
2023/10/24 10:06:34;;;;;;;28.40;20.58;;;33.30;99.50;;;;;;5045461;28;20412;-70
2023/10/24 10:09:03;;;;;;;39.10;23.70;;;33.20;99.60;;;;;;5034600;28;20038;-71
2023/10/24 10:11:31;;;;;;;73.22;38.05;;;33.20;99.90;;;;;;5043773;28;20478;-70
2023/10/24 10:14:18;;;;;;;87.75;49.90;;;33.00;99.90;;;;;;5034451;28;20057;-66
2023/10/24 10:17:03;;;;;;;45.30;29.25;;;33.00;99.90;;;;;;4998078;28;20067;-62
2023/10/24 10:19:41;;;;;;;218.50;110.70;;;32.90;99.90;;;;;;5041822;28;20029;-64
2023/10/24 10:22:32;;;;;;;412.98;242.80;;;32.90;99.90;;;;;;5024274;28;20557;-66
2023/10/24 10:25:19;;;;;;;538.38;257.45;;;32.60;99.90;;;;;;5003864;28;20037;-66
2023/10/24 10:27:52;;;;;;;503.17;220.40;;;32.40;99.90;;;;;;5045252;28;20526;-69
2023/10/24 10:30:47;;;;;;;324.27;145.55;;;32.30;99.90;;;;;;5037703;28;20025;-71
2023/10/24 10:33:18;;;;;;;287.15;133.90;;;32.10;99.90;;;;;;5042418;28;20416;-67
2023/10/24 10:35:48;;;;;;;258.95;118.00;;;32.00;99.90;;;;;;5026778;28;20021;-62
2023/10/24 10:38:59;;;;;;;314.73;131.07;;;31.90;99.90;;;;;;5041864;28;20491;-62
2023/10/24 10:41:28;;;;;;;305.90;131.40;;;31.80;99.90;;;;;;5038111;28;20432;-61
2023/10/24 11:02:09;;;;;;;50.65;34.03;;;28.80;99.90;;;;;;5092662;27;21022;-62
2023/10/24 11:04:36;;;;;;;64.00;39.63;;;28.70;99.90;;;;;;5089582;28;20079;-61
2023/10/24 11:07:04;;;;;;;52.50;35.15;;;28.70;99.90;;;;;;5089960;28;20103;-61
2023/10/24 11:09:35;;;;;;;55.25;38.75;;;28.70;99.90;;;;;;5090417;28;20024;-61
2023/10/24 11:12:19;;;;;;;53.00;34.83;;;28.70;99.90;;;;;;5079900;28;20056;-61
2023/10/24 11:15:09;;;;;;;50.75;33.65;;;28.80;99.90;;;;;;5089674;28;20028;-61
2023/10/24 11:17:37;;;;;;;56.15;34.70;;;28.80;99.90;;;;;;5075189;28;20017;-61
2023/10/24 11:20:05;;;;;;;85.50;58.78;;;28.80;99.90;;;;;;5072153;28;20047;-62
2023/10/24 11:22:32;;;;;;;66.38;42.90;;;28.90;99.90;;;;;;5084120;28;20021;-62
2023/10/24 11:24:59;;;;;;;69.22;47.65;;;29.00;99.90;;;;;;5089743;28;20028;-63
2023/10/24 11:27:26;;;;;;;69.90;41.15;;;29.20;99.90;;;;;;5088386;28;20022;-60
2023/10/24 11:29:53;;;;;;;71.40;43.72;;;29.30;99.90;;;;;;5084372;28;20024;-64
2023/10/24 11:32:21;;;;;;;61.08;37.83;;;29.40;99.90;;;;;;5089545;28;20439;-62
2023/10/24 11:34:47;;;;;;;50.75;31.38;;;29.60;99.90;;;;;;5087267;28;20040;-62
2023/10/24 11:37:14;;;;;;;46.83;32.45;;;29.50;99.90;;;;;;5089842;28;20020;-63
2023/10/24 11:39:43;;;;;;;47.85;31.23;;;29.60;99.90;;;;;;5089017;28;20031;-64
2023/10/24 11:42:09;;;;;;;43.95;28.25;;;29.70;99.90;;;;;;5089804;28;20426;-63
2023/10/24 11:44:36;;;;;;;43.65;27.63;;;29.70;99.90;;;;;;5089383;28;20040;-63
2023/10/24 11:47:04;;;;;;;38.80;25.77;;;29.70;99.90;;;;;;5089452;28;20013;-62
2023/10/24 11:49:33;;;;;;;41.53;26.65;;;29.70;99.90;;;;;;5086151;28;20066;-62
2023/10/24 11:52:00;;;;;;;44.72;29.65;;;29.70;99.90;;;;;;5087676;28;20099;-65
2023/10/24 11:54:27;;;;;;;39.40;28.42;;;29.70;99.90;;;;;;5089295;28;20550;-60
2023/10/24 11:56:54;;;;;;;54.88;33.85;;;29.80;99.90;;;;;;5089928;28;20492;-61
2023/10/24 11:59:21;;;;;;;51.53;30.77;;;29.80;99.90;;;;;;5083852;28;20120;-62
2023/10/24 12:01:48;;;;;;;48.75;31.45;;;29.80;99.90;;;;;;5091032;28;20118;-61
2023/10/24 12:04:15;;;;;;;54.45;35.25;;;29.80;99.90;;;;;;5105495;28;20578;-61
2023/10/24 12:06:42;;;;;;;53.85;37.03;;;29.80;99.90;;;;;;5110145;28;20039;-61
2023/10/24 12:09:09;;;;;;;65.22;39.83;;;29.80;99.90;;;;;;5109810;28;20434;-62
2023/10/24 12:11:36;;;;;;;64.00;39.70;;;29.70;99.90;;;;;;5105321;28;20095;-62
2023/10/24 12:14:03;;;;;;;74.80;45.08;;;29.60;99.90;;;;;;5096375;28;20043;-62
2023/10/24 12:16:32;;;;;;;101.72;50.72;;;29.60;99.90;;;;;;5096182;28;20388;-63
2023/10/24 12:18:59;;;;;;;85.57;47.53;;;29.60;99.90;;;;;;5096176;28;20047;-62
2023/10/24 12:21:25;;;;;;;88.88;50.83;;;29.60;99.90;;;;;;5096230;28;20066;-63
2023/10/24 12:23:52;;;;;;;67.25;42.63;;;29.60;99.90;;;;;;5096293;28;20102;-63
2023/10/24 12:26:19;;;;;;;62.22;40.13;;;29.50;99.90;;;;;;5096204;28;20020;-62
2023/10/24 12:28:46;;;;;;;67.20;39.80;;;29.50;99.90;;;;;;5090895;28;20021;-63
2023/10/24 12:31:13;;;;;;;69.28;43.30;;;29.50;99.90;;;;;;5060423;28;20511;-62
2023/10/24 12:33:39;;;;;;;78.88;45.28;;;29.60;99.90;;;;;;5056314;28;20028;-61
2023/10/24 12:36:07;;;;;;;77.78;47.05;;;29.70;99.90;;;;;;5093781;28;20440;-62
2023/10/24 12:38:37;;;;;;;72.13;43.00;;;29.70;99.90;;;;;;5095947;28;20476;-63
2023/10/24 12:41:05;;;;;;;72.65;43.20;;;29.60;99.90;;;;;;5095839;28;20111;-63